createdAt,value
2022-10-09T00:01:28.575Z,102791.44
2022-10-09T00:03:56.589Z,102786.28
2022-10-09T00:06:26.384Z,102784.47
2022-10-09T00:08:52.812Z,102781.84
2022-10-09T00:11:25.705Z,102785.22
2022-10-09T00:13:53.992Z,102780.19
2022-10-09T00:16:21.695Z,102790.25
2022-10-09T00:18:48.802Z,102785.84
2022-10-09T00:21:22.709Z,102785.94
2022-10-09T00:23:50.622Z,102790.28
2022-10-09T00:26:17.642Z,102792.78
2022-10-09T00:28:44.137Z,102797.75
2022-10-09T00:31:11.609Z,102791.78
2022-10-09T00:33:38.369Z,102791.81
2022-10-09T00:36:14.381Z,102785.94
2022-10-09T00:38:41.587Z,102783.34
2022-10-09T00:41:08.079Z,102779.78
2022-10-09T00:43:53.316Z,102783.06
2022-10-09T00:46:34.918Z,102779.66
2022-10-09T00:49:13.427Z,102775.47
2022-10-09T00:51:41.885Z,102782.34
2022-10-09T00:54:13.374Z,102776.28
2022-10-09T00:56:39.953Z,102783.88
2022-10-09T00:59:06.983Z,102787.13
2022-10-09T01:01:33.373Z,102786.19
2022-10-09T01:03:59.913Z,102784.44
2022-10-09T01:06:55.470Z,102792.09
2022-10-09T01:10:05.110Z,102781.97
2022-10-09T01:12:53.338Z,102786.16
2022-10-09T01:15:41.597Z,102784.34
2022-10-09T01:18:17.413Z,102776.56
2022-10-09T01:20:54.061Z,102776.56
2022-10-09T01:23:40.734Z,102779.09
2022-10-09T01:26:16.321Z,102782.44
2022-10-09T01:28:46.653Z,102780.78
2022-10-09T01:31:16.654Z,102763.00
2022-10-09T01:33:44.167Z,102759.63
2022-10-09T01:36:10.941Z,102757.78
2022-10-09T01:38:40.207Z,102759.28
2022-10-09T01:41:08.508Z,102760.22
2022-10-09T01:43:35.254Z,102759.34
2022-10-09T01:46:31.782Z,102750.00
2022-10-09T01:49:01.059Z,102755.75
2022-10-09T01:51:32.084Z,102750.63
2022-10-09T01:54:03.408Z,102753.88
2022-10-09T01:56:34.727Z,102746.22
2022-10-09T01:59:06.642Z,102748.56
2022-10-09T02:01:36.699Z,102736.63
2022-10-09T02:04:07.491Z,102738.28
2022-10-09T02:06:35.879Z,102738.31
2022-10-09T02:09:06.792Z,102739.13
2022-10-09T02:11:34.393Z,102744.28
2022-10-09T02:14:00.856Z,102736.66
2022-10-09T02:16:39.122Z,102727.44
2022-10-09T02:19:25.007Z,102729.13
2022-10-09T02:21:59.636Z,102724.06
2022-10-09T02:24:26.660Z,102728.06
2022-10-09T02:26:54.706Z,102715.91
2022-10-09T02:29:21.629Z,102707.47
2022-10-09T02:31:48.040Z,102718.66
2022-10-09T02:34:18.181Z,102718.78
2022-10-09T02:36:45.973Z,102719.44
2022-10-09T02:39:12.660Z,102713.13
2022-10-09T02:41:39.048Z,102715.47
2022-10-09T02:44:06.396Z,102720.53
2022-10-09T02:46:34.042Z,102718.84
2022-10-09T02:49:00.522Z,102715.34
2022-10-09T02:51:26.942Z,102718.72
2022-10-09T02:53:54.103Z,102717.97
2022-10-09T02:56:21.811Z,102711.22
2022-10-09T02:58:48.320Z,102713.88
2022-10-09T03:01:14.789Z,102714.00
2022-10-09T03:03:41.186Z,102707.31
2022-10-09T03:06:11.306Z,102714.09
2022-10-09T03:08:40.257Z,102707.31
2022-10-09T03:11:07.126Z,102710.59
2022-10-09T03:13:33.894Z,102707.22
2022-10-09T03:16:05.063Z,102712.38
2022-10-09T03:18:31.671Z,102711.47
2022-10-09T03:20:58.308Z,102705.47
2022-10-09T03:23:25.346Z,102707.09
2022-10-09T03:26:02.814Z,102707.94
2022-10-09T03:28:29.451Z,102702.84
2022-10-09T03:30:55.940Z,102709.56
2022-10-09T03:33:23.076Z,102700.84
2022-10-09T03:35:49.972Z,102706.72
2022-10-09T03:38:17.542Z,102701.75
2022-10-09T03:40:44.870Z,102706.06
2022-10-09T03:43:11.491Z,102707.63
2022-10-09T03:45:42.423Z,102701.63
2022-10-09T03:48:11.232Z,102703.31
2022-10-09T03:50:38.653Z,102704.97
2022-10-09T03:53:05.838Z,102704.91
2022-10-09T03:55:32.335Z,102710.81
2022-10-09T03:57:58.755Z,102705.75
2022-10-09T04:00:25.582Z,102708.03
2022-10-09T04:02:52.626Z,102721.56
2022-10-09T04:05:19.456Z,102718.84
2022-10-09T04:07:45.792Z,102720.41
2022-10-09T04:10:12.668Z,102721.41
2022-10-09T04:12:39.285Z,102724.63
2022-10-09T04:15:06.085Z,102732.00
2022-10-09T04:17:32.530Z,102725.16
2022-10-09T04:19:59.033Z,102728.69
2022-10-09T04:22:25.833Z,102721.00
2022-10-09T04:24:52.194Z,102725.34
2022-10-09T04:27:18.606Z,102726.88
2022-10-09T04:29:44.962Z,102725.00
2022-10-09T04:32:11.296Z,102714.75
2022-10-09T04:34:37.719Z,102718.00
2022-10-09T04:37:04.069Z,102714.53
2022-10-09T04:39:30.395Z,102708.56
2022-10-09T04:41:56.734Z,102714.31
2022-10-09T04:44:23.131Z,102715.19
2022-10-09T04:46:52.364Z,102705.09
2022-10-09T04:49:18.882Z,102707.72
2022-10-09T04:51:45.418Z,102697.44
2022-10-09T04:54:12.572Z,102700.81
2022-10-09T04:56:39.153Z,102701.53
2022-10-09T04:59:05.661Z,102704.88
2022-10-09T05:01:37.931Z,102700.53
2022-10-09T05:04:04.874Z,102697.19
2022-10-09T05:06:31.207Z,102702.25
2022-10-09T05:08:57.600Z,102703.88
2022-10-09T05:11:25.006Z,102701.28
2022-10-09T05:13:54.743Z,102704.69
2022-10-09T05:16:24.200Z,102695.41
2022-10-09T05:18:53.023Z,102692.09
2022-10-09T05:21:20.156Z,102686.03
2022-10-09T05:23:46.693Z,102692.69
2022-10-09T05:26:15.696Z,102689.94
2022-10-09T05:28:42.595Z,102690.72
2022-10-09T05:31:09.593Z,102691.69
2022-10-09T05:33:36.422Z,102697.78
2022-10-09T05:36:05.405Z,102688.44
2022-10-09T05:38:33.299Z,102687.34
2022-10-09T05:41:05.906Z,102694.00
2022-10-09T05:43:35.548Z,102683.91
2022-10-09T05:46:10.860Z,102684.81
2022-10-09T05:48:38.941Z,102686.56
2022-10-09T05:51:11.049Z,102684.88
2022-10-09T05:53:38.716Z,102689.00
2022-10-09T05:56:19.853Z,102691.59
2022-10-09T05:58:54.759Z,102694.84
2022-10-09T06:01:23.061Z,102692.25
2022-10-09T06:03:51.181Z,102697.31
2022-10-09T06:06:18.899Z,102695.53
2022-10-09T06:08:45.321Z,102694.72
2022-10-09T06:11:14.573Z,102700.84
2022-10-09T06:13:41.844Z,102704.38
2022-10-09T06:16:08.898Z,102705.97
2022-10-09T06:18:35.284Z,102701.03
2022-10-09T06:21:02.079Z,102710.50
2022-10-09T06:23:28.561Z,102710.69
2022-10-09T06:25:57.690Z,102715.94
2022-10-09T06:28:24.244Z,102713.31
2022-10-09T06:30:50.700Z,102713.22
2022-10-09T06:33:17.389Z,102710.72
2022-10-09T06:35:43.863Z,102713.44
2022-10-09T06:38:10.540Z,102711.00
2022-10-09T06:40:37.938Z,102711.22
2022-10-09T06:43:05.209Z,102707.25
2022-10-09T06:45:36.811Z,102704.97
2022-10-09T06:48:03.174Z,102699.13
2022-10-09T06:50:29.523Z,102705.28
2022-10-09T06:52:55.874Z,102706.28
2022-10-09T06:55:25.250Z,102711.34
2022-10-09T06:57:54.969Z,102710.50
2022-10-09T07:00:21.348Z,102715.69
2022-10-09T07:02:48.206Z,102721.84
2022-10-09T07:05:14.880Z,102711.97
2022-10-09T07:07:41.777Z,102706.38
2022-10-09T07:10:09.356Z,102706.66
2022-10-09T07:12:36.623Z,102713.63
2022-10-09T07:15:05.113Z,102717.16
2022-10-09T07:17:32.087Z,102718.22
2022-10-09T07:19:58.616Z,102724.34
2022-10-09T07:22:27.165Z,102715.34
2022-10-09T07:24:53.672Z,102713.91
2022-10-09T07:27:20.004Z,102715.84
2022-10-09T07:29:46.353Z,102707.56
2022-10-09T07:32:12.696Z,102708.56
2022-10-09T07:34:39.094Z,102699.44
2022-10-09T07:37:05.477Z,102708.06
2022-10-09T07:39:31.847Z,102695.56
2022-10-09T07:41:58.166Z,102702.56
2022-10-09T07:44:24.504Z,102701.00
2022-10-09T07:46:51.558Z,102703.72
2022-10-09T07:49:18.059Z,102702.22
2022-10-09T07:51:45.232Z,102700.69
2022-10-09T07:54:11.668Z,102703.38
2022-10-09T07:56:38.255Z,102702.66
2022-10-09T07:59:11.945Z,102702.81
2022-10-09T08:01:39.225Z,102699.56
2022-10-09T08:04:06.029Z,102704.84
2022-10-09T08:06:32.824Z,102696.50
2022-10-09T08:09:00.724Z,102697.50
2022-10-09T08:11:28.895Z,102706.97
2022-10-09T08:13:55.986Z,102696.91
2022-10-09T08:16:23.587Z,102695.31
2022-10-09T08:18:54.577Z,102689.44
2022-10-09T08:21:20.856Z,102684.41
2022-10-09T08:23:47.248Z,102684.53
2022-10-09T08:26:15.893Z,102690.53
2022-10-09T08:28:42.842Z,102682.09
2022-10-09T08:31:14.395Z,102683.03
2022-10-09T08:33:41.051Z,102675.41
2022-10-09T08:36:10.326Z,102676.31
2022-10-09T08:38:47.184Z,102674.66
2022-10-09T08:41:20.549Z,102666.19
2022-10-09T08:43:57.069Z,102669.63
2022-10-09T08:46:28.483Z,102664.53
2022-10-09T08:48:55.913Z,102656.84
2022-10-09T08:51:38.460Z,102650.91
2022-10-09T08:54:30.731Z,102655.19
2022-10-09T08:57:00.820Z,102661.19
2022-10-09T08:59:27.339Z,102646.63
2022-10-09T09:02:21.724Z,102654.28
2022-10-09T09:05:25.579Z,102651.72
2022-10-09T09:08:17.046Z,102640.53
2022-10-09T09:11:05.313Z,102642.22
2022-10-09T09:13:45.153Z,102637.91
2022-10-09T09:16:25.150Z,102632.72
2022-10-09T09:19:16.117Z,102634.31
2022-10-09T09:21:51.083Z,102634.25
2022-10-09T09:24:27.692Z,102627.34
2022-10-09T09:26:59.372Z,102622.13
2022-10-09T09:29:26.685Z,102626.25
2022-10-09T09:31:59.301Z,102617.59
2022-10-09T09:34:39.069Z,102602.91
2022-10-09T09:37:05.501Z,102606.22
2022-10-09T09:42:21.190Z,102602.50
2022-10-09T09:45:03.219Z,102599.81
2022-10-09T09:47:47.884Z,102596.22
2022-10-09T09:50:35.006Z,102595.25
2022-10-09T09:53:05.678Z,102586.44
2022-10-09T09:55:33.769Z,102585.34
2022-10-09T09:58:03.326Z,102580.03
2022-10-09T10:00:30.151Z,102577.31
2022-10-09T10:03:14.566Z,102568.59
2022-10-09T10:05:43.143Z,102570.16
2022-10-09T10:08:23.724Z,102568.13
2022-10-09T10:10:53.749Z,102558.50
2022-10-09T10:13:23.376Z,102555.81
2022-10-09T10:15:55.887Z,102558.28
2022-10-09T10:18:25.870Z,102556.44
2022-10-09T10:21:04.494Z,102550.41
2022-10-09T10:23:36.828Z,102557.03
2022-10-09T10:26:18.360Z,102555.00
2022-10-09T10:29:03.427Z,102545.25
2022-10-09T10:31:58.619Z,102539.09
2022-10-09T10:34:29.417Z,102536.28
2022-10-09T10:37:12.538Z,102533.41
2022-10-09T10:39:49.423Z,102519.50
2022-10-09T10:42:21.208Z,102522.88
2022-10-09T10:44:54.452Z,102520.78
2022-10-09T10:47:26.764Z,102510.22
2022-10-09T10:49:53.210Z,102511.75
2022-10-09T10:52:43.881Z,102509.81
2022-10-09T10:55:21.786Z,102495.78
2022-10-09T10:58:09.843Z,102495.50
2022-10-09T11:00:41.005Z,102497.22
2022-10-09T11:03:15.649Z,102492.63
2022-10-09T11:05:47.969Z,102482.13
2022-10-09T11:08:43.281Z,102484.47
2022-10-09T11:11:38.620Z,102475.47
2022-10-09T11:14:32.418Z,102478.78
2022-10-09T11:17:18.446Z,102475.00
2022-10-09T11:20:03.051Z,102474.28
2022-10-09T11:23:02.076Z,102471.69
2022-10-09T11:25:43.519Z,102459.44
2022-10-09T11:28:18.112Z,102448.75
2022-10-09T11:30:57.593Z,102447.88
2022-10-09T11:33:46.810Z,102449.38
2022-10-09T11:36:37.815Z,102442.50
2022-10-09T11:39:10.810Z,102441.69
2022-10-09T11:41:38.093Z,102438.06
2022-10-09T11:44:20.970Z,102424.22
2022-10-09T11:46:47.248Z,102426.47
2022-10-09T11:49:13.843Z,102419.59
2022-10-09T11:51:57.389Z,102417.88
2022-10-09T11:54:27.377Z,102401.13
2022-10-09T11:56:58.908Z,102401.91
2022-10-09T11:59:31.347Z,102396.34
2022-10-09T12:01:59.812Z,102396.75
2022-10-09T12:07:33.893Z,102384.66
2022-10-09T12:10:25.615Z,102372.50
2022-10-09T12:13:33.426Z,102371.16
2022-10-09T12:15:59.917Z,102361.16
2022-10-09T12:18:33.336Z,102348.09
2022-10-09T12:21:04.301Z,102340.66
2022-10-09T12:23:40.256Z,102347.38
2022-10-09T12:26:12.108Z,102344.78
2022-10-09T12:28:45.725Z,102334.28
2022-10-09T12:31:25.723Z,102327.53
2022-10-09T12:33:57.224Z,102323.91
2022-10-09T12:36:27.527Z,102320.00
2022-10-09T12:38:54.435Z,102323.66
2022-10-09T12:41:26.067Z,102310.31
2022-10-09T12:43:55.280Z,102310.00
2022-10-09T12:46:34.528Z,102307.25
2022-10-09T12:49:03.675Z,102294.59
2022-10-09T12:51:32.801Z,102284.91
2022-10-09T12:53:59.901Z,102282.53
2022-10-09T12:56:31.937Z,102271.47
2022-10-09T12:59:00.476Z,102274.59
2022-10-09T13:01:27.586Z,102264.13
2022-10-09T13:04:01.079Z,102264.28
2022-10-09T13:06:49.938Z,102263.16
2022-10-09T13:09:40.428Z,102260.81
2022-10-09T13:12:24.018Z,102252.34
2022-10-09T13:15:00.764Z,102252.41
2022-10-09T13:17:34.676Z,102239.50
2022-10-09T13:20:12.665Z,102229.19
2022-10-09T13:22:39.671Z,102230.78
2022-10-09T13:25:06.860Z,102227.28
2022-10-09T13:27:37.798Z,102225.16
2022-10-09T13:30:05.655Z,102221.38
2022-10-09T13:32:32.324Z,102210.03
2022-10-09T13:34:58.687Z,102218.06
2022-10-09T13:37:26.856Z,102208.09
2022-10-09T13:39:54.776Z,102200.84
2022-10-09T13:42:22.978Z,102200.34
2022-10-09T13:44:49.341Z,102190.22
2022-10-09T13:47:18.570Z,102190.97
2022-10-09T13:49:47.109Z,102182.56
2022-10-09T13:52:13.462Z,102176.75
2022-10-09T13:54:39.987Z,102183.34
2022-10-09T13:57:06.405Z,102180.09
2022-10-09T13:59:32.917Z,102173.22
2022-10-09T14:02:00.130Z,102176.75
2022-10-09T14:04:28.144Z,102169.19
2022-10-09T14:06:54.900Z,102171.56
2022-10-09T14:09:21.304Z,102166.25
2022-10-09T14:11:47.940Z,102159.00
2022-10-09T14:14:14.394Z,102152.69
2022-10-09T14:16:40.832Z,102153.09
2022-10-09T14:19:07.239Z,102150.72
2022-10-09T14:21:33.672Z,102155.19
2022-10-09T14:24:02.348Z,102138.81
2022-10-09T14:26:29.204Z,102134.94
2022-10-09T14:28:59.668Z,102142.63
2022-10-09T14:31:26.605Z,102138.69
2022-10-09T14:33:56.550Z,102137.53
2022-10-09T14:36:23.388Z,102134.63
2022-10-09T14:38:49.842Z,102120.28
2022-10-09T14:41:17.932Z,102121.72
2022-10-09T14:43:48.530Z,102108.53
2022-10-09T14:46:17.053Z,102110.50
2022-10-09T14:48:49.885Z,102111.09
2022-10-09T14:51:18.989Z,102105.28
2022-10-09T14:53:45.630Z,102109.69
2022-10-09T14:56:19.074Z,102106.25
2022-10-09T14:58:46.346Z,102097.81
2022-10-09T15:01:18.495Z,102093.47
2022-10-09T15:03:46.130Z,102091.84
2022-10-09T15:06:13.017Z,102086.06
2022-10-09T15:08:42.495Z,102085.69
2022-10-09T15:11:12.797Z,102086.78
2022-10-09T15:13:39.627Z,102083.53
2022-10-09T15:16:10.914Z,102072.34
2022-10-09T15:18:37.729Z,102069.81
2022-10-09T15:21:04.602Z,102074.28
2022-10-09T15:23:31.086Z,102066.03
2022-10-09T15:26:00.597Z,102062.78
2022-10-09T15:28:27.440Z,102058.75
2022-10-09T15:30:57.467Z,102057.91
2022-10-09T15:33:24.865Z,102057.16
2022-10-09T15:35:52.000Z,102058.22
2022-10-09T15:38:22.396Z,102041.91
2022-10-09T15:40:51.795Z,102043.81
2022-10-09T15:43:20.835Z,102037.06
2022-10-09T15:45:48.256Z,102039.13
2022-10-09T15:48:20.910Z,102034.16
2022-10-09T15:50:50.488Z,102022.25
2022-10-09T15:53:18.830Z,102014.69
2022-10-09T15:55:49.067Z,102026.16
2022-10-09T15:58:16.360Z,102030.69
2022-10-09T16:00:52.814Z,102016.31
2022-10-09T16:03:19.302Z,102010.63
2022-10-09T16:05:48.743Z,102006.56
2022-10-09T16:08:17.373Z,102005.06
2022-10-09T16:10:49.063Z,102002.75
2022-10-09T16:13:16.089Z,101993.50
2022-10-09T16:15:43.603Z,101993.66
2022-10-09T16:18:10.258Z,101994.81
2022-10-09T16:20:38.126Z,101994.13
2022-10-09T16:23:05.052Z,101992.63
2022-10-09T16:25:31.466Z,101989.34
2022-10-09T16:27:57.887Z,101989.38
2022-10-09T16:30:24.572Z,101981.03
2022-10-09T16:32:51.487Z,101984.69
2022-10-09T16:35:18.263Z,101990.06
2022-10-09T16:37:44.800Z,101986.81
2022-10-09T16:40:11.365Z,101981.88
2022-10-09T16:42:37.837Z,101980.34
2022-10-09T16:45:04.871Z,101983.19
2022-10-09T16:47:31.697Z,101978.25
2022-10-09T16:49:58.045Z,101976.66
2022-10-09T16:52:24.425Z,101981.25
2022-10-09T16:54:50.883Z,101984.00
2022-10-09T16:57:18.147Z,101981.59
2022-10-09T16:59:45.121Z,101978.47
2022-10-09T17:02:12.888Z,101983.03
2022-10-09T17:04:40.665Z,101979.81
2022-10-09T17:07:08.896Z,101986.88
2022-10-09T17:09:40.348Z,101984.59
2022-10-09T17:12:09.965Z,101983.13
2022-10-09T17:14:37.451Z,101981.59
2022-10-09T17:17:08.588Z,101975.84
2022-10-09T17:19:35.595Z,101975.19
2022-10-09T17:22:02.533Z,101983.91
2022-10-09T17:24:29.484Z,101978.94
2022-10-09T17:26:56.006Z,101977.56
2022-10-09T17:29:22.964Z,101978.63
2022-10-09T17:31:49.946Z,101980.50
2022-10-09T17:34:17.176Z,101979.81
2022-10-09T17:36:44.729Z,101972.34
2022-10-09T17:39:14.733Z,101977.81
2022-10-09T17:41:43.293Z,101978.84
2022-10-09T17:44:10.569Z,101978.13
2022-10-09T17:46:36.929Z,101979.09
2022-10-09T17:49:03.719Z,101971.63
2022-10-09T17:51:32.545Z,101970.97
2022-10-09T17:54:01.695Z,101974.56
2022-10-09T17:56:30.409Z,101967.00
2022-10-09T17:59:02.321Z,101967.16
2022-10-09T18:01:29.791Z,101961.34
2022-10-09T18:03:56.607Z,101956.25
2022-10-09T18:06:23.866Z,101960.66
2022-10-09T18:08:54.849Z,101954.78
2022-10-09T18:11:23.298Z,101955.78
2022-10-09T18:13:49.709Z,101956.75
2022-10-09T18:16:19.358Z,101947.47
2022-10-09T18:18:45.971Z,101953.56
2022-10-09T18:21:17.741Z,101946.88
2022-10-09T18:23:46.643Z,101951.28
2022-10-09T18:26:19.373Z,101945.44
2022-10-09T18:28:48.292Z,101948.97
2022-10-09T18:31:20.649Z,101945.69
2022-10-09T18:33:47.183Z,101938.91
2022-10-09T18:36:20.022Z,101936.44
2022-10-09T18:38:52.419Z,101934.75
2022-10-09T18:41:20.417Z,101933.94
2022-10-09T18:43:47.767Z,101937.44
2022-10-09T18:46:16.280Z,101935.75
2022-10-09T18:48:43.187Z,101938.31
2022-10-09T18:51:14.995Z,101927.28
2022-10-09T18:53:43.817Z,101929.94
2022-10-09T18:56:12.021Z,101935.16
2022-10-09T18:58:41.172Z,101932.59
2022-10-09T19:01:08.053Z,101930.13
2022-10-09T19:03:36.462Z,101926.00
2022-10-09T19:06:04.153Z,101929.47
2022-10-09T19:08:30.585Z,101922.66
2022-10-09T19:10:56.947Z,101923.56
2022-10-09T19:13:23.455Z,101923.56
2022-10-09T19:15:53.764Z,101926.16
2022-10-09T19:18:21.199Z,101922.00
2022-10-09T19:20:48.110Z,101921.22
2022-10-09T19:23:15.719Z,101909.34
2022-10-09T19:25:50.243Z,101905.94
2022-10-09T19:28:17.559Z,101900.84
2022-10-09T19:30:44.439Z,101903.50
2022-10-09T19:33:11.315Z,101908.59
2022-10-09T19:35:51.266Z,101906.91
2022-10-09T19:38:18.340Z,101900.13
2022-10-09T19:40:45.380Z,101908.66
2022-10-09T19:43:12.744Z,101903.59
2022-10-09T19:45:39.633Z,101896.78
2022-10-09T19:48:06.938Z,101901.94
2022-10-09T19:50:33.608Z,101896.84
2022-10-09T19:53:03.116Z,101896.88
2022-10-09T19:55:32.741Z,101889.28
2022-10-09T19:58:00.360Z,101891.00
2022-10-09T20:00:26.891Z,101885.88
2022-10-09T20:02:53.499Z,101881.66
2022-10-09T20:05:20.033Z,101884.22
2022-10-09T20:07:46.599Z,101882.56
2022-10-09T20:10:13.392Z,101884.28
2022-10-09T20:12:39.917Z,101876.66
2022-10-09T20:15:07.111Z,101871.56
2022-10-09T20:17:33.948Z,101865.59
2022-10-09T20:20:04.090Z,101864.75
2022-10-09T20:22:30.455Z,101857.94
2022-10-09T20:24:56.782Z,101852.00
2022-10-09T20:27:23.471Z,101855.41
2022-10-09T20:29:52.468Z,101857.97
2022-10-09T20:32:18.851Z,101854.53
2022-10-09T20:34:45.182Z,101856.28
2022-10-09T20:37:11.566Z,101855.44
2022-10-09T20:39:38.153Z,101861.38
2022-10-09T20:42:04.842Z,101858.03
2022-10-09T20:44:31.173Z,101865.66
2022-10-09T20:46:57.635Z,101861.41
2022-10-09T20:49:24.142Z,101860.56
2022-10-09T20:51:51.181Z,101858.84
2022-10-09T20:54:20.032Z,101846.13
2022-10-09T20:56:46.659Z,101851.22
2022-10-09T20:59:14.282Z,101841.06
2022-10-09T21:01:40.659Z,101838.47
2022-10-09T21:04:07.100Z,101833.38
2022-10-09T21:06:35.773Z,101829.13
2022-10-09T21:09:02.777Z,101828.31
2022-10-09T21:11:31.908Z,101827.44
2022-10-09T21:13:58.295Z,101817.25
2022-10-09T21:16:25.154Z,101823.22
2022-10-09T21:19:00.112Z,101830.00
2022-10-09T21:21:27.516Z,101818.97
2022-10-09T21:23:56.419Z,101820.66
2022-10-09T21:26:24.195Z,101820.66
2022-10-09T21:28:55.419Z,101815.56
2022-10-09T21:31:27.445Z,101813.03
2022-10-09T21:33:54.444Z,101819.81
2022-10-09T21:36:55.852Z,101807.94
2022-10-09T21:39:27.394Z,101804.53
2022-10-09T21:41:54.231Z,101804.53
2022-10-09T21:44:20.743Z,101796.03
2022-10-09T21:46:47.138Z,101805.38
2022-10-09T21:49:27.084Z,101792.63
2022-10-09T21:51:54.403Z,101797.75
2022-10-09T21:54:21.297Z,101792.66
2022-10-09T21:56:48.512Z,101799.41
2022-10-09T21:59:15.353Z,101803.69
2022-10-09T22:01:41.732Z,101804.50
2022-10-09T22:04:08.464Z,101798.56
2022-10-09T22:06:34.815Z,101793.47
2022-10-09T22:09:01.493Z,101789.22
2022-10-09T22:11:27.850Z,101790.09
2022-10-09T22:13:55.888Z,101794.31
2022-10-09T22:16:22.243Z,101791.75
2022-10-09T22:18:49.082Z,101782.44
2022-10-09T22:21:16.026Z,101785.00
2022-10-09T22:23:42.881Z,101778.19
2022-10-09T22:26:16.930Z,101781.56
2022-10-09T22:28:44.664Z,101790.91
2022-10-09T22:31:16.907Z,101779.84
2022-10-09T22:33:43.865Z,101778.16
2022-10-09T22:36:11.650Z,101771.38
2022-10-09T22:38:39.220Z,101777.31
2022-10-09T22:41:19.997Z,101769.69
2022-10-09T22:43:48.888Z,101768.81
2022-10-09T22:46:18.597Z,101780.69
2022-10-09T22:48:46.482Z,101763.75
2022-10-09T22:51:15.095Z,101763.72
2022-10-09T22:53:42.869Z,101763.72
2022-10-09T22:56:14.004Z,101756.06
2022-10-09T22:58:42.692Z,101757.78
2022-10-09T23:01:31.851Z,101757.78
2022-10-09T23:04:00.467Z,101760.31
2022-10-09T23:06:27.485Z,101760.28
2022-10-09T23:08:54.381Z,101758.59
2022-10-09T23:11:22.207Z,101745.03
2022-10-09T23:13:56.623Z,101744.19
2022-10-09T23:16:24.053Z,101746.69
2022-10-09T23:18:51.057Z,101742.44
2022-10-09T23:21:20.094Z,101730.56
2022-10-09T23:23:47.824Z,101733.09
2022-10-09T23:26:21.973Z,101735.66
2022-10-09T23:28:56.237Z,101729.69
2022-10-09T23:31:23.009Z,101730.56
2022-10-09T23:33:49.903Z,101727.16
2022-10-09T23:36:20.071Z,101728.03
2022-10-09T23:38:48.073Z,101726.31
2022-10-09T23:41:16.655Z,101728.00
2022-10-09T23:43:44.204Z,101731.41
2022-10-09T23:46:16.629Z,101723.78
2022-10-09T23:48:44.297Z,101720.41
2022-10-09T23:51:11.577Z,101714.44
2022-10-09T23:53:37.971Z,101717.84
2022-10-09T23:56:15.488Z,101711.06
2022-10-09T23:58:41.960Z,101707.69
